Time,TemperatureF,DewpointF,PressureIn,WindDirection,WindDirectionDegrees,WindSpeedMPH,WindSpeedGustMPH,Humidity,HourlyPrecipIn,Conditions,Clouds,dailyrainin,SoftwareType,DateUTC
2013-01-10 00:09:00,35.1,32.0,29.95,WSW,243,3.0,-999.0,88,-99.99,,,0.00,weatherlink.com 1.10,2013-01-10 05:09:00,
2013-01-10 00:24:00,34.4,32.0,29.95,NNW,335,3.0,-999.0,91,-99.99,,,0.00,weatherlink.com 1.10,2013-01-10 05:24:00,
2013-01-10 00:54:00,33.2,32.0,29.98,NE,49,0.0,-999.0,95,-99.99,,,0.00,weatherlink.com 1.10,2013-01-10 05:54:00,
2013-01-10 01:09:00,32.8,32.0,29.99,NE,40,0.0,-999.0,96,-99.99,,,0.00,weatherlink.com 1.10,2013-01-10 06:09:00,
2013-01-10 01:24:00,32.6,32.0,30.01,SW,221,4.0,-999.0,96,-99.99,,,0.00,weatherlink.com 1.10,2013-01-10 06:24:00,
2013-01-10 01:39:00,32.6,32.0,30.01,South,178,0.0,-999.0,96,-99.99,,,0.00,weatherlink.com 1.10,2013-01-10 06:39:00,
2013-01-10 01:54:00,32.8,32.0,30.03,West,270,0.0,-999.0,96,-99.99,,,0.00,weatherlink.com 1.10,2013-01-10 06:54:00,
2013-01-10 02:09:00,32.9,32.0,30.04,South,182,3.0,-999.0,95,-99.99,,,0.00,weatherlink.com 1.10,2013-01-10 07:09:00,
2013-01-10 02:24:00,32.9,31.0,30.06,NNE,24,1.0,-999.0,94,-99.99,,,0.00,weatherlink.com 1.10,2013-01-10 07:24:00,
2013-01-10 02:39:00,33.0,31.0,30.07,WNW,298,0.0,-999.0,93,-99.99,,,0.00,weatherlink.com 1.10,2013-01-10 07:39:00,
2013-01-10 02:54:00,33.0,31.0,30.08,NW,315,2.0,-999.0,92,-99.99,,,0.00,weatherlink.com 1.10,2013-01-10 07:54:00,
2013-01-10 03:09:00,33.5,31.0,30.09,West,281,0.0,-999.0,89,-99.99,,,0.00,weatherlink.com 1.10,2013-01-10 08:09:00,
2013-01-10 03:24:00,33.6,30.0,30.11,SW,221,5.0,-999.0,88,-99.99,,,0.00,weatherlink.com 1.10,2013-01-10 08:24:00,
2013-01-10 03:39:00,33.5,30.0,30.11,WNW,290,2.0,-999.0,88,-99.99,,,0.00,weatherlink.com 1.10,2013-01-10 08:39:00,
2013-01-10 03:54:00,33.7,30.0,30.13,SSE,165,4.0,-999.0,85,-99.99,,,0.00,weatherlink.com 1.10,2013-01-10 08:54:00,
2013-01-10 04:09:00,33.8,30.0,30.15,West,276,0.0,-999.0,84,-99.99,,,0.00,weatherlink.com 1.10,2013-01-10 09:09:00,
2013-01-10 04:24:00,33.7,30.0,30.16,WNW,296,2.0,-999.0,85,-99.99,,,0.00,weatherlink.com 1.10,2013-01-10 09:24:00,
2013-01-10 04:39:00,33.9,28.0,30.17,South,176,4.0,-999.0,79,-99.99,,,0.00,weatherlink.com 1.10,2013-01-10 09:39:00,
2013-01-10 04:55:00,33.9,28.0,30.18,West,279,4.0,-999.0,79,-99.99,,,0.00,weatherlink.com 1.10,2013-01-10 09:55:00,
2013-01-10 05:10:00,33.9,28.0,30.18,NW,304,2.0,-999.0,79,-99.99,,,0.00,weatherlink.com 1.10,2013-01-10 10:10:00,
2013-01-10 05:25:00,33.7,28.0,30.19,SW,217,2.0,-999.0,80,-99.99,,,0.00,weatherlink.com 1.10,2013-01-10 10:25:00,
2013-01-10 05:40:00,33.7,28.0,30.20,ENE,74,5.0,-999.0,80,-99.99,,,0.00,weatherlink.com 1.10,2013-01-10 10:40:00,
2013-01-10 05:55:00,33.7,28.0,30.20,WSW,244,3.0,-999.0,81,-99.99,,,0.00,weatherlink.com 1.10,2013-01-10 10:55:00,
2013-01-10 06:10:00,33.8,28.0,30.21,NW,317,2.0,-999.0,79,-99.99,,,0.00,weatherlink.com 1.10,2013-01-10 11:10:00,
2013-01-10 06:25:00,33.6,28.0,30.21,WNW,286,10.0,-999.0,81,-99.99,,,0.00,weatherlink.com 1.10,2013-01-10 11:25:00,
2013-01-10 06:40:00,33.8,28.0,30.22,West,281,2.0,-999.0,79,-99.99,,,0.00,weatherlink.com 1.10,2013-01-10 11:40:00,
2013-01-10 06:55:00,33.7,28.0,30.22,NNE,14,3.0,-999.0,80,-99.99,,,0.00,weatherlink.com 1.10,2013-01-10 11:55:00,
2013-01-10 07:25:00,33.5,28.0,30.24,East,83,3.0,-999.0,80,-99.99,,,0.00,weatherlink.com 1.10,2013-01-10 12:25:00,
2013-01-10 07:40:00,33.6,28.0,30.25,NNE,30,2.0,-999.0,80,-99.99,,,0.00,weatherlink.com 1.10,2013-01-10 12:40:00,
2013-01-10 07:55:00,33.8,28.0,30.27,WSW,258,3.0,-999.0,78,-99.99,,,0.00,weatherlink.com 1.10,2013-01-10 12:55:00,
2013-01-10 08:10:00,33.8,28.0,30.27,North,360,1.0,-999.0,78,-99.99,,,0.00,weatherlink.com 1.10,2013-01-10 13:10:00,
2013-01-10 08:25:00,33.8,28.0,30.29,NW,314,6.0,-999.0,79,-99.99,,,0.00,weatherlink.com 1.10,2013-01-10 13:25:00,
2013-01-10 08:40:00,33.9,28.0,30.30,West,272,3.0,-999.0,79,-99.99,,,0.00,weatherlink.com 1.10,2013-01-10 13:40:00,
2013-01-10 08:55:00,33.9,28.0,30.29,SW,225,1.0,-999.0,78,-99.99,,,0.00,weatherlink.com 1.10,2013-01-10 13:55:00,
2013-01-10 09:10:00,34.2,28.0,30.30,SSW,206,2.0,-999.0,77,-99.99,,,0.00,weatherlink.com 1.10,2013-01-10 14:10:00,
2013-01-10 09:25:00,34.2,28.0,30.32,WNW,298,1.0,-999.0,78,-99.99,,,0.00,weatherlink.com 1.10,2013-01-10 14:25:00,
2013-01-10 09:40:00,34.2,28.0,30.32,SW,218,3.0,-999.0,78,-99.99,,,0.00,weatherlink.com 1.10,2013-01-10 14:40:00,
2013-01-10 09:55:00,34.3,28.0,30.34,NNW,331,0.0,-999.0,77,-99.99,,,0.00,weatherlink.com 1.10,2013-01-10 14:55:00,
2013-01-10 10:10:00,34.4,28.0,30.34,SE,127,0.0,-999.0,77,-99.99,,,0.00,weatherlink.com 1.10,2013-01-10 15:10:00,
2013-01-10 10:25:00,34.7,28.0,30.34,NE,46,1.0,-999.0,76,-99.99,,,0.00,weatherlink.com 1.10,2013-01-10 15:25:00,
2013-01-10 10:40:00,35.0,28.0,30.34,NE,46,0.0,-999.0,74,-99.99,,,0.00,weatherlink.com 1.10,2013-01-10 15:40:00,
2013-01-10 10:55:00,35.2,28.0,30.34,NNW,338,3.0,-999.0,74,-99.99,,,0.01,weatherlink.com 1.10,2013-01-10 15:55:00,
2013-01-10 11:10:00,35.3,27.0,30.35,North,355,3.0,-999.0,73,-99.99,,,0.01,weatherlink.com 1.10,2013-01-10 16:10:00,
2013-01-10 11:25:00,35.3,27.0,30.35,NE,46,6.0,-999.0,73,-99.99,,,0.01,weatherlink.com 1.10,2013-01-10 16:25:00,
2013-01-10 11:40:00,35.3,27.0,30.35,NNW,336,0.0,-999.0,73,-99.99,,,0.01,weatherlink.com 1.10,2013-01-10 16:40:00,
2013-01-10 11:55:00,35.3,27.0,30.35,WNW,284,0.0,-999.0,73,-99.99,,,0.01,weatherlink.com 1.10,2013-01-10 16:55:00,
2013-01-10 12:10:00,35.4,27.0,30.35,West,269,2.0,-999.0,72,-99.99,,,0.01,weatherlink.com 1.10,2013-01-10 17:10:00,
2013-01-10 12:25:00,35.4,27.0,30.35,SSW,211,1.0,-999.0,72,-99.99,,,0.01,weatherlink.com 1.10,2013-01-10 17:25:00,
2013-01-10 12:40:00,35.7,27.0,30.36,NW,317,2.0,-999.0,72,-99.99,,,0.01,weatherlink.com 1.10,2013-01-10 17:40:00,
2013-01-10 12:55:00,35.8,27.0,30.36,NW,311,1.0,-999.0,71,-99.99,,,0.01,weatherlink.com 1.10,2013-01-10 17:55:00,
2013-01-10 13:10:00,35.7,27.0,30.36,NW,326,2.0,-999.0,71,-99.99,,,0.01,weatherlink.com 1.10,2013-01-10 18:10:00,
2013-01-10 13:25:00,36.3,27.0,30.37,SSW,192,2.0,-999.0,69,-99.99,,,0.01,weatherlink.com 1.10,2013-01-10 18:25:00,
2013-01-10 13:40:00,36.0,27.0,30.38,NNW,347,3.0,-999.0,69,-99.99,,,0.01,weatherlink.com 1.10,2013-01-10 18:40:00,
2013-01-10 13:55:00,35.7,27.0,30.39,WNW,300,0.0,-999.0,70,-99.99,,,0.01,weatherlink.com 1.10,2013-01-10 18:55:00,
2013-01-10 14:11:00,35.7,27.0,30.40,SE,134,1.0,-999.0,70,-99.99,,,0.01,weatherlink.com 1.10,2013-01-10 19:11:00,
2013-01-10 14:26:00,35.7,27.0,30.41,SW,221,3.0,-999.0,70,-99.99,,,0.01,weatherlink.com 1.10,2013-01-10 19:26:00,
2013-01-10 14:41:00,35.6,27.0,30.41,West,281,0.0,-999.0,72,-99.99,,,0.01,weatherlink.com 1.10,2013-01-10 19:41:00,
2013-01-10 14:56:00,35.6,26.0,30.42,NNW,341,0.0,-999.0,69,-99.99,,,0.01,weatherlink.com 1.10,2013-01-10 19:56:00,
2013-01-10 15:11:00,35.3,27.0,30.42,NW,306,3.0,-999.0,71,-99.99,,,0.01,weatherlink.com 1.10,2013-01-10 20:11:00,
2013-01-10 15:26:00,34.9,26.0,30.43,NW,304,5.0,-999.0,70,-99.99,,,0.01,weatherlink.com 1.10,2013-01-10 20:26:00,
2013-01-10 15:41:00,34.7,26.0,30.44,WNW,298,3.0,-999.0,71,-99.99,,,0.01,weatherlink.com 1.10,2013-01-10 20:41:00,
2013-01-10 15:56:00,34.5,26.0,30.44,NW,306,4.0,-999.0,72,-99.99,,,0.01,weatherlink.com 1.10,2013-01-10 20:56:00,
2013-01-10 16:11:00,34.2,26.0,30.45,NE,40,0.0,-999.0,72,-99.99,,,0.01,weatherlink.com 1.10,2013-01-10 21:11:00,
2013-01-10 16:41:00,33.7,26.0,30.48,NNW,342,0.0,-999.0,74,-99.99,,,0.01,weatherlink.com 1.10,2013-01-10 21:41:00,
2013-01-10 16:56:00,33.5,26.0,30.47,West,279,2.0,-999.0,74,-99.99,,,0.01,weatherlink.com 1.10,2013-01-10 21:56:00,
2013-01-10 17:11:00,33.5,26.0,30.47,North,350,0.0,-999.0,73,-99.99,,,0.01,weatherlink.com 1.10,2013-01-10 22:11:00,
2013-01-10 17:26:00,33.4,26.0,30.48,NNW,338,0.0,-999.0,73,-99.99,,,0.01,weatherlink.com 1.10,2013-01-10 22:26:00,
2013-01-10 17:41:00,33.1,26.0,30.49,North,355,3.0,-999.0,74,-99.99,,,0.01,weatherlink.com 1.10,2013-01-10 22:41:00,
2013-01-10 17:56:00,33.0,26.0,30.49,NNE,22,1.0,-999.0,75,-99.99,,,0.01,weatherlink.com 1.10,2013-01-10 22:56:00,
2013-01-10 18:11:00,32.9,25.0,30.50,NNE,32,1.0,-999.0,73,-99.99,,,0.01,weatherlink.com 1.10,2013-01-10 23:11:00,
2013-01-10 18:26:00,32.8,25.0,30.50,NW,321,0.0,-999.0,74,-99.99,,,0.01,weatherlink.com 1.10,2013-01-10 23:26:00,
2013-01-10 18:41:00,32.6,26.0,30.49,North,360,2.0,-999.0,75,-99.99,,,0.01,weatherlink.com 1.10,2013-01-10 23:41:00,
2013-01-10 18:56:00,32.5,25.0,30.48,North,360,2.0,-999.0,75,-99.99,,,0.01,weatherlink.com 1.10,2013-01-10 23:56:00,
2013-01-10 19:11:00,32.4,25.0,30.49,NW,311,0.0,-999.0,75,-99.99,,,0.01,weatherlink.com 1.10,2013-01-11 00:11:00,
2013-01-10 19:28:00,32.3,25.0,30.48,NE,42,0.0,-999.0,73,-99.99,,,0.01,weatherlink.com 1.10,2013-01-11 00:28:00,
2013-01-10 19:41:00,32.3,25.0,30.49,NNE,19,1.0,-999.0,74,-99.99,,,0.01,weatherlink.com 1.10,2013-01-11 00:41:00,
2013-01-10 19:56:00,32.2,25.0,30.49,North,355,1.0,-999.0,74,-99.99,,,0.01,weatherlink.com 1.10,2013-01-11 00:56:00,
2013-01-10 20:11:00,32.1,25.0,30.50,NE,42,0.0,-999.0,75,-99.99,,,0.01,weatherlink.com 1.10,2013-01-11 01:11:00,
2013-01-10 20:26:00,32.1,25.0,30.50,NW,313,0.0,-999.0,76,-99.99,,,0.01,weatherlink.com 1.10,2013-01-11 01:26:00,
2013-01-10 20:41:00,31.9,25.0,30.49,NNW,338,2.0,-999.0,76,-99.99,,,0.01,weatherlink.com 1.10,2013-01-11 01:41:00,
2013-01-10 20:56:00,31.9,25.0,30.49,NNW,332,2.0,-999.0,76,-99.99,,,0.01,weatherlink.com 1.10,2013-01-11 01:56:00,
2013-01-10 21:11:00,31.6,25.0,30.50,NNW,333,1.0,-999.0,78,-99.99,,,0.01,weatherlink.com 1.10,2013-01-11 02:11:00,
2013-01-10 21:26:00,31.4,26.0,30.50,NNW,333,0.0,-999.0,79,-99.99,,,0.01,weatherlink.com 1.10,2013-01-11 02:26:00,
2013-01-10 21:41:00,31.1,25.0,30.51,NNW,333,0.0,-999.0,79,-99.99,,,0.01,weatherlink.com 1.10,2013-01-11 02:41:00,
2013-01-10 21:56:00,30.8,25.0,30.52,WSW,257,0.0,-999.0,79,-99.99,,,0.01,weatherlink.com 1.10,2013-01-11 02:56:00,
2013-01-10 22:11:00,30.6,25.0,30.52,NW,325,0.0,-999.0,79,-99.99,,,0.01,weatherlink.com 1.10,2013-01-11 03:11:00,
2013-01-10 22:26:00,29.9,25.0,30.51,NW,325,0.0,-999.0,81,-99.99,,,0.01,weatherlink.com 1.10,2013-01-11 03:26:00,
2013-01-10 22:41:00,29.4,24.0,30.51,NW,325,0.0,-999.0,79,-99.99,,,0.01,weatherlink.com 1.10,2013-01-11 03:41:00,
2013-01-10 22:57:00,28.9,23.0,30.51,NW,325,0.0,-999.0,80,-99.99,,,0.01,weatherlink.com 1.10,2013-01-11 03:57:00,
2013-01-10 23:12:00,28.5,23.0,30.50,NW,325,0.0,-999.0,81,-99.99,,,0.01,weatherlink.com 1.10,2013-01-11 04:12:00,
2013-01-10 23:27:00,27.8,23.0,30.50,NW,325,0.0,-999.0,83,-99.99,,,0.01,weatherlink.com 1.10,2013-01-11 04:27:00,
2013-01-10 23:42:00,27.5,23.0,30.51,NW,325,0.0,-999.0,83,-99.99,,,0.01,weatherlink.com 1.10,2013-01-11 04:42:00,
2013-01-10 23:57:00,27.2,23.0,30.51,NW,325,0.0,-999.0,83,-99.99,,,0.01,weatherlink.com 1.10,2013-01-11 04:57:00,